sensor_id;sensor_type;location;lat;lon;timestamp;P1;durP1;ratioP1;P2;durP2;ratioP2
46322;SDS011;32044;52.386;13.278;2022-08-01T00:01:01;3.75;;;2.60;;
46322;SDS011;32044;52.386;13.278;2022-08-01T00:03:26;2.92;;;2.65;;
46322;SDS011;32044;52.386;13.278;2022-08-01T00:05:51;5.38;;;3.30;;
46322;SDS011;32044;52.386;13.278;2022-08-01T00:08:16;4.00;;;3.15;;
46322;SDS011;32044;52.386;13.278;2022-08-01T00:10:42;3.30;;;3.00;;
46322;SDS011;32044;52.386;13.278;2022-08-01T00:13:07;4.82;;;2.67;;
46322;SDS011;32044;52.386;13.278;2022-08-01T00:15:32;3.42;;;3.08;;
46322;SDS011;32044;52.386;13.278;2022-08-01T00:17:58;5.88;;;3.20;;
46322;SDS011;32044;52.386;13.278;2022-08-01T00:20:23;4.32;;;2.85;;
46322;SDS011;32044;52.386;13.278;2022-08-01T00:22:49;3.78;;;2.83;;
46322;SDS011;32044;52.386;13.278;2022-08-01T00:25:14;5.13;;;3.08;;
46322;SDS011;32044;52.386;13.278;2022-08-01T00:27:39;3.92;;;2.78;;
46322;SDS011;32044;52.386;13.278;2022-08-01T00:30:05;5.45;;;3.03;;
46322;SDS011;32044;52.386;13.278;2022-08-01T00:32:31;3.30;;;3.00;;
46322;SDS011;32044;52.386;13.278;2022-08-01T00:34:57;4.35;;;3.35;;
46322;SDS011;32044;52.386;13.278;2022-08-01T00:37:22;5.45;;;3.85;;
46322;SDS011;32044;52.386;13.278;2022-08-01T00:39:47;4.45;;;3.38;;
46322;SDS011;32044;52.386;13.278;2022-08-01T00:42:13;5.25;;;3.92;;
46322;SDS011;32044;52.386;13.278;2022-08-01T00:44:39;5.88;;;3.45;;
46322;SDS011;32044;52.386;13.278;2022-08-01T00:47:05;6.90;;;3.72;;
46322;SDS011;32044;52.386;13.278;2022-08-01T00:49:30;3.70;;;3.40;;
46322;SDS011;32044;52.386;13.278;2022-08-01T00:51:56;5.20;;;3.25;;
46322;SDS011;32044;52.386;13.278;2022-08-01T00:54:23;4.00;;;3.60;;
46322;SDS011;32044;52.386;13.278;2022-08-01T00:56:49;4.00;;;3.58;;
46322;SDS011;32044;52.386;13.278;2022-08-01T00:59:15;3.80;;;3.22;;
46322;SDS011;32044;52.386;13.278;2022-08-01T01:01:42;3.63;;;3.17;;
46322;SDS011;32044;52.386;13.278;2022-08-01T01:04:07;7.38;;;3.65;;
46322;SDS011;32044;52.386;13.278;2022-08-01T01:10:08;3.92;;;3.53;;
46322;SDS011;32044;52.386;13.278;2022-08-01T01:12:38;3.58;;;3.22;;
46322;SDS011;32044;52.386;13.278;2022-08-01T01:15:26;5.72;;;3.70;;
46322;SDS011;32044;52.386;13.278;2022-08-01T01:18:11;4.22;;;3.78;;
46322;SDS011;32044;52.386;13.278;2022-08-01T01:20:41;3.78;;;3.47;;
46322;SDS011;32044;52.386;13.278;2022-08-01T01:26:17;3.78;;;3.47;;
46322;SDS011;32044;52.386;13.278;2022-08-01T01:29:03;4.93;;;3.72;;
46322;SDS011;32044;52.386;13.278;2022-08-01T01:31:43;4.10;;;3.70;;
46322;SDS011;32044;52.386;13.278;2022-08-01T01:34:12;4.65;;;3.22;;
46322;SDS011;32044;52.386;13.278;2022-08-01T01:36:39;3.50;;;3.20;;
46322;SDS011;32044;52.386;13.278;2022-08-01T01:39:04;3.75;;;3.40;;
46322;SDS011;32044;52.386;13.278;2022-08-01T01:41:31;4.88;;;3.50;;
46322;SDS011;32044;52.386;13.278;2022-08-01T01:43:57;3.80;;;3.40;;
46322;SDS011;32044;52.386;13.278;2022-08-01T01:46:23;4.32;;;3.40;;
46322;SDS011;32044;52.386;13.278;2022-08-01T01:48:51;4.65;;;3.45;;
46322;SDS011;32044;52.386;13.278;2022-08-01T01:51:20;5.05;;;3.80;;
46322;SDS011;32044;52.386;13.278;2022-08-01T01:53:46;3.72;;;3.40;;
46322;SDS011;32044;52.386;13.278;2022-08-01T01:56:14;4.68;;;3.53;;
46322;SDS011;32044;52.386;13.278;2022-08-01T01:58:39;4.38;;;3.47;;
46322;SDS011;32044;52.386;13.278;2022-08-01T02:01:06;3.88;;;3.40;;
46322;SDS011;32044;52.386;13.278;2022-08-01T02:03:31;6.07;;;3.60;;
46322;SDS011;32044;52.386;13.278;2022-08-01T02:05:57;4.00;;;3.70;;
46322;SDS011;32044;52.386;13.278;2022-08-01T02:08:24;3.75;;;3.38;;
46322;SDS011;32044;52.386;13.278;2022-08-01T02:10:50;5.07;;;3.72;;
46322;SDS011;32044;52.386;13.278;2022-08-01T02:13:36;4.40;;;4.00;;
46322;SDS011;32044;52.386;13.278;2022-08-01T02:16:02;5.97;;;4.25;;
46322;SDS011;32044;52.386;13.278;2022-08-01T02:18:28;5.20;;;3.95;;
46322;SDS011;32044;52.386;13.278;2022-08-01T02:20:53;4.22;;;3.83;;
46322;SDS011;32044;52.386;13.278;2022-08-01T02:23:19;3.78;;;3.47;;
46322;SDS011;32044;52.386;13.278;2022-08-01T02:25:48;6.25;;;3.95;;
46322;SDS011;32044;52.386;13.278;2022-08-01T02:28:19;3.50;;;3.20;;
46322;SDS011;32044;52.386;13.278;2022-08-01T02:30:50;4.68;;;3.53;;
46322;SDS011;32044;52.386;13.278;2022-08-01T02:33:16;4.07;;;3.67;;
46322;SDS011;32044;52.386;13.278;2022-08-01T02:35:46;3.80;;;3.50;;
46322;SDS011;32044;52.386;13.278;2022-08-01T02:38:14;4.20;;;3.63;;
46322;SDS011;32044;52.386;13.278;2022-08-01T02:40:41;5.90;;;4.15;;
46322;SDS011;32044;52.386;13.278;2022-08-01T02:43:09;5.50;;;4.07;;
46322;SDS011;32044;52.386;13.278;2022-08-01T02:45:37;3.63;;;3.25;;
46322;SDS011;32044;52.386;13.278;2022-08-01T02:48:06;6.10;;;3.60;;
46322;SDS011;32044;52.386;13.278;2022-08-01T02:50:35;3.80;;;3.30;;
46322;SDS011;32044;52.386;13.278;2022-08-01T02:53:01;5.45;;;3.85;;
46322;SDS011;32044;52.386;13.278;2022-08-01T02:55:26;4.28;;;3.88;;
46322;SDS011;32044;52.386;13.278;2022-08-01T02:57:53;5.22;;;4.00;;
46322;SDS011;32044;52.386;13.278;2022-08-01T03:00:19;3.63;;;3.33;;
46322;SDS011;32044;52.386;13.278;2022-08-01T03:02:44;4.63;;;3.40;;
46322;SDS011;32044;52.386;13.278;2022-08-01T03:05:13;6.40;;;3.80;;
46322;SDS011;32044;52.386;13.278;2022-08-01T03:07:39;4.10;;;3.70;;
46322;SDS011;32044;52.386;13.278;2022-08-01T03:10:05;4.18;;;3.50;;
46322;SDS011;32044;52.386;13.278;2022-08-01T03:12:31;4.05;;;3.65;;
46322;SDS011;32044;52.386;13.278;2022-08-01T03:14:58;5.80;;;3.92;;
46322;SDS011;32044;52.386;13.278;2022-08-01T03:17:24;4.93;;;4.20;;
46322;SDS011;32044;52.386;13.278;2022-08-01T03:19:52;6.63;;;4.32;;
46322;SDS011;32044;52.386;13.278;2022-08-01T03:22:18;6.75;;;4.95;;
46322;SDS011;32044;52.386;13.278;2022-08-01T03:24:48;6.97;;;4.22;;
46322;SDS011;32044;52.386;13.278;2022-08-01T03:27:15;5.38;;;4.88;;
46322;SDS011;32044;52.386;13.278;2022-08-01T03:29:40;5.20;;;4.40;;
46322;SDS011;32044;52.386;13.278;2022-08-01T03:32:06;5.60;;;4.28;;
46322;SDS011;32044;52.386;13.278;2022-08-01T03:34:32;5.03;;;4.53;;
46322;SDS011;32044;52.386;13.278;2022-08-01T03:39:37;5.97;;;4.88;;
46322;SDS011;32044;52.386;13.278;2022-08-01T03:42:07;7.35;;;4.82;;
46322;SDS011;32044;52.386;13.278;2022-08-01T03:44:37;10.02;;;4.43;;
46322;SDS011;32044;52.386;13.278;2022-08-01T03:47:05;5.60;;;4.85;;
46322;SDS011;32044;52.386;13.278;2022-08-01T03:49:32;5.22;;;4.72;;
46322;SDS011;32044;52.386;13.278;2022-08-01T03:52:01;5.55;;;5.05;;
46322;SDS011;32044;52.386;13.278;2022-08-01T03:54:28;5.68;;;5.00;;
46322;SDS011;32044;52.386;13.278;2022-08-01T03:56:56;6.65;;;5.43;;
46322;SDS011;32044;52.386;13.278;2022-08-01T03:59:22;6.18;;;5.38;;
46322;SDS011;32044;52.386;13.278;2022-08-01T04:01:47;5.40;;;4.85;;
46322;SDS011;32044;52.386;13.278;2022-08-01T04:04:13;7.43;;;4.97;;
46322;SDS011;32044;52.386;13.278;2022-08-01T04:06:39;5.32;;;4.80;;
46322;SDS011;32044;52.386;13.278;2022-08-01T04:09:06;4.50;;;4.10;;
46322;SDS011;32044;52.386;13.278;2022-08-01T04:11:32;5.55;;;4.22;;
46322;SDS011;32044;52.386;13.278;2022-08-01T04:13:57;5.25;;;4.53;;
46322;SDS011;32044;52.386;13.278;2022-08-01T04:16:23;5.45;;;4.57;;
46322;SDS011;32044;52.386;13.278;2022-08-01T04:18:48;7.05;;;5.47;;
46322;SDS011;32044;52.386;13.278;2022-08-01T04:21:14;7.72;;;5.60;;
46322;SDS011;32044;52.386;13.278;2022-08-01T04:23:43;5.40;;;4.82;;
46322;SDS011;32044;52.386;13.278;2022-08-01T04:26:08;7.20;;;5.30;;
46322;SDS011;32044;52.386;13.278;2022-08-01T04:28:35;5.40;;;4.78;;
46322;SDS011;32044;52.386;13.278;2022-08-01T04:31:02;6.53;;;4.35;;
46322;SDS011;32044;52.386;13.278;2022-08-01T04:33:28;5.25;;;4.57;;
46322;SDS011;32044;52.386;13.278;2022-08-01T04:35:54;5.75;;;5.25;;
46322;SDS011;32044;52.386;13.278;2022-08-01T04:38:22;6.07;;;4.90;;
46322;SDS011;32044;52.386;13.278;2022-08-01T04:40:52;5.55;;;4.47;;
46322;SDS011;32044;52.386;13.278;2022-08-01T04:43:17;7.68;;;5.57;;
46322;SDS011;32044;52.386;13.278;2022-08-01T04:45:43;6.05;;;5.45;;
46322;SDS011;32044;52.386;13.278;2022-08-01T04:48:09;6.22;;;5.50;;
46322;SDS011;32044;52.386;13.278;2022-08-01T04:50:36;6.90;;;5.63;;
46322;SDS011;32044;52.386;13.278;2022-08-01T04:53:02;5.32;;;4.82;;
46322;SDS011;32044;52.386;13.278;2022-08-01T04:55:28;6.50;;;5.90;;
46322;SDS011;32044;52.386;13.278;2022-08-01T04:57:54;5.63;;;5.13;;
46322;SDS011;32044;52.386;13.278;2022-08-01T05:00:19;7.13;;;5.22;;
46322;SDS011;32044;52.386;13.278;2022-08-01T05:02:44;7.03;;;5.82;;
46322;SDS011;32044;52.386;13.278;2022-08-01T05:05:10;5.97;;;5.38;;
46322;SDS011;32044;52.386;13.278;2022-08-01T05:07:35;6.30;;;5.60;;
46322;SDS011;32044;52.386;13.278;2022-08-01T05:10:01;7.72;;;6.43;;
46322;SDS011;32044;52.386;13.278;2022-08-01T05:12:27;8.27;;;6.18;;
46322;SDS011;32044;52.386;13.278;2022-08-01T05:14:52;6.15;;;5.22;;
46322;SDS011;32044;52.386;13.278;2022-08-01T05:17:18;5.22;;;4.40;;
46322;SDS011;32044;52.386;13.278;2022-08-01T05:19:43;6.22;;;5.63;;
46322;SDS011;32044;52.386;13.278;2022-08-01T05:22:08;5.65;;;5.15;;
46322;SDS011;32044;52.386;13.278;2022-08-01T05:24:35;6.00;;;4.57;;
46322;SDS011;32044;52.386;13.278;2022-08-01T05:27:01;4.70;;;4.30;;
46322;SDS011;32044;52.386;13.278;2022-08-01T05:29:28;5.28;;;4.45;;
46322;SDS011;32044;52.386;13.278;2022-08-01T05:31:53;4.72;;;4.22;;
46322;SDS011;32044;52.386;13.278;2022-08-01T05:34:19;4.28;;;3.60;;
46322;SDS011;32044;52.386;13.278;2022-08-01T05:36:45;5.90;;;3.72;;
46322;SDS011;32044;52.386;13.278;2022-08-01T05:39:10;4.88;;;4.05;;
46322;SDS011;32044;52.386;13.278;2022-08-01T05:41:36;4.18;;;3.38;;
46322;SDS011;32044;52.386;13.278;2022-08-01T05:44:01;5.07;;;4.53;;
46322;SDS011;32044;52.386;13.278;2022-08-01T05:46:27;6.82;;;4.35;;
46322;SDS011;32044;52.386;13.278;2022-08-01T05:48:53;5.50;;;4.13;;
46322;SDS011;32044;52.386;13.278;2022-08-01T05:51:18;3.95;;;3.65;;
46322;SDS011;32044;52.386;13.278;2022-08-01T05:53:43;3.20;;;2.85;;
46322;SDS011;32044;52.386;13.278;2022-08-01T05:56:09;4.38;;;3.78;;
46322;SDS011;32044;52.386;13.278;2022-08-01T05:58:34;5.32;;;3.60;;
46322;SDS011;32044;52.386;13.278;2022-08-01T06:00:59;5.13;;;3.50;;
46322;SDS011;32044;52.386;13.278;2022-08-01T06:03:25;4.75;;;3.30;;
46322;SDS011;32044;52.386;13.278;2022-08-01T06:05:53;3.58;;;3.22;;
46322;SDS011;32044;52.386;13.278;2022-08-01T06:08:18;4.43;;;3.20;;
46322;SDS011;32044;52.386;13.278;2022-08-01T06:10:43;6.82;;;5.00;;
46322;SDS011;32044;52.386;13.278;2022-08-01T06:13:09;5.50;;;4.93;;
46322;SDS011;32044;52.386;13.278;2022-08-01T06:15:34;5.70;;;4.63;;
46322;SDS011;32044;52.386;13.278;2022-08-01T06:18:00;4.78;;;3.72;;
46322;SDS011;32044;52.386;13.278;2022-08-01T06:20:25;3.65;;;2.90;;
46322;SDS011;32044;52.386;13.278;2022-08-01T06:22:50;3.40;;;3.10;;
46322;SDS011;32044;52.386;13.278;2022-08-01T06:25:19;3.05;;;2.85;;
46322;SDS011;32044;52.386;13.278;2022-08-01T06:27:44;3.75;;;2.63;;
46322;SDS011;32044;52.386;13.278;2022-08-01T06:30:10;4.07;;;2.63;;
46322;SDS011;32044;52.386;13.278;2022-08-01T06:32:35;2.65;;;2.30;;
46322;SDS011;32044;52.386;13.278;2022-08-01T06:35:00;3.15;;;2.53;;
46322;SDS011;32044;52.386;13.278;2022-08-01T06:37:29;3.13;;;2.60;;
46322;SDS011;32044;52.386;13.278;2022-08-01T06:39:55;4.38;;;2.50;;
46322;SDS011;32044;52.386;13.278;2022-08-01T06:42:20;3.13;;;2.92;;
46322;SDS011;32044;52.386;13.278;2022-08-01T06:44:45;2.67;;;2.47;;
46322;SDS011;32044;52.386;13.278;2022-08-01T06:47:11;4.57;;;2.25;;
46322;SDS011;32044;52.386;13.278;2022-08-01T06:49:36;2.78;;;2.30;;
46322;SDS011;32044;52.386;13.278;2022-08-01T06:52:01;3.05;;;2.53;;
46322;SDS011;32044;52.386;13.278;2022-08-01T06:54:28;4.55;;;2.67;;
46322;SDS011;32044;52.386;13.278;2022-08-01T06:56:53;2.60;;;2.40;;
46322;SDS011;32044;52.386;13.278;2022-08-01T06:59:19;2.40;;;2.22;;
46322;SDS011;32044;52.386;13.278;2022-08-01T07:01:44;2.70;;;2.50;;
46322;SDS011;32044;52.386;13.278;2022-08-01T07:04:09;3.60;;;3.00;;
46322;SDS011;32044;52.386;13.278;2022-08-01T07:06:35;3.63;;;2.95;;
46322;SDS011;32044;52.386;13.278;2022-08-01T07:09:00;2.88;;;2.58;;
46322;SDS011;32044;52.386;13.278;2022-08-01T07:11:26;3.22;;;2.65;;
46322;SDS011;32044;52.386;13.278;2022-08-01T07:13:52;3.53;;;2.88;;
46322;SDS011;32044;52.386;13.278;2022-08-01T07:16:17;2.90;;;2.58;;
46322;SDS011;32044;52.386;13.278;2022-08-01T07:18:43;3.83;;;2.97;;
46322;SDS011;32044;52.386;13.278;2022-08-01T07:21:08;2.90;;;2.55;;
46322;SDS011;32044;52.386;13.278;2022-08-01T07:23:34;2.78;;;2.58;;
46322;SDS011;32044;52.386;13.278;2022-08-01T07:25:59;3.53;;;3.22;;
46322;SDS011;32044;52.386;13.278;2022-08-01T07:28:26;4.95;;;2.90;;
46322;SDS011;32044;52.386;13.278;2022-08-01T07:30:52;2.90;;;2.65;;
46322;SDS011;32044;52.386;13.278;2022-08-01T07:33:17;3.03;;;2.72;;
46322;SDS011;32044;52.386;13.278;2022-08-01T07:35:42;3.00;;;2.80;;
46322;SDS011;32044;52.386;13.278;2022-08-01T07:38:07;3.85;;;3.08;;
46322;SDS011;32044;52.386;13.278;2022-08-01T07:40:33;3.65;;;3.10;;
46322;SDS011;32044;52.386;13.278;2022-08-01T07:42:58;4.45;;;2.92;;
46322;SDS011;32044;52.386;13.278;2022-08-01T07:45:23;5.13;;;3.13;;
46322;SDS011;32044;52.386;13.278;2022-08-01T07:47:49;3.78;;;3.47;;
46322;SDS011;32044;52.386;13.278;2022-08-01T07:50:14;4.20;;;3.80;;
46322;SDS011;32044;52.386;13.278;2022-08-01T07:52:40;4.47;;;4.07;;
46322;SDS011;32044;52.386;13.278;2022-08-01T07:55:06;4.50;;;3.75;;
46322;SDS011;32044;52.386;13.278;2022-08-01T07:57:32;4.18;;;3.78;;
46322;SDS011;32044;52.386;13.278;2022-08-01T07:59:57;9.45;;;4.60;;
46322;SDS011;32044;52.386;13.278;2022-08-01T08:02:23;8.57;;;4.60;;
46322;SDS011;32044;52.386;13.278;2022-08-01T08:04:48;6.93;;;4.90;;
46322;SDS011;32044;52.386;13.278;2022-08-01T08:07:14;15.25;;;6.25;;
46322;SDS011;32044;52.386;13.278;2022-08-01T08:09:39;6.20;;;4.97;;
46322;SDS011;32044;52.386;13.278;2022-08-01T08:12:04;14.35;;;5.97;;
46322;SDS011;32044;52.386;13.278;2022-08-01T08:14:30;9.45;;;5.47;;
46322;SDS011;32044;52.386;13.278;2022-08-01T08:16:55;9.38;;;7.03;;
46322;SDS011;32044;52.386;13.278;2022-08-01T08:19:20;8.07;;;6.45;;
46322;SDS011;32044;52.386;13.278;2022-08-01T08:21:46;8.20;;;6.13;;
46322;SDS011;32044;52.386;13.278;2022-08-01T08:24:11;6.28;;;5.68;;
46322;SDS011;32044;52.386;13.278;2022-08-01T08:26:49;5.95;;;5.35;;
46322;SDS011;32044;52.386;13.278;2022-08-01T08:29:18;6.65;;;5.22;;
46322;SDS011;32044;52.386;13.278;2022-08-01T08:31:44;5.38;;;4.88;;
46322;SDS011;32044;52.386;13.278;2022-08-01T08:34:09;4.82;;;4.43;;
46322;SDS011;32044;52.386;13.278;2022-08-01T08:36:34;3.95;;;3.63;;
46322;SDS011;32044;52.386;13.278;2022-08-01T08:39:00;4.05;;;3.20;;
46322;SDS011;32044;52.386;13.278;2022-08-01T08:41:25;6.70;;;2.85;;
46322;SDS011;32044;52.386;13.278;2022-08-01T08:43:51;2.72;;;2.50;;
46322;SDS011;32044;52.386;13.278;2022-08-01T08:46:16;10.70;;;3.17;;
46322;SDS011;32044;52.386;13.278;2022-08-01T08:48:41;2.60;;;2.38;;
46322;SDS011;32044;52.386;13.278;2022-08-01T08:51:07;5.30;;;2.20;;
46322;SDS011;32044;52.386;13.278;2022-08-01T08:53:33;4.85;;;2.53;;
46322;SDS011;32044;52.386;13.278;2022-08-01T08:56:00;2.35;;;2.15;;
46322;SDS011;32044;52.386;13.278;2022-08-01T08:58:26;2.78;;;2.47;;
46322;SDS011;32044;52.386;13.278;2022-08-01T09:00:53;2.70;;;2.03;;
46322;SDS011;32044;52.386;13.278;2022-08-01T09:03:19;2.00;;;1.90;;
46322;SDS011;32044;52.386;13.278;2022-08-01T09:05:44;2.10;;;1.90;;
46322;SDS011;32044;52.386;13.278;2022-08-01T09:08:09;2.65;;;2.10;;
46322;SDS011;32044;52.386;13.278;2022-08-01T09:10:35;2.38;;;1.90;;
46322;SDS011;32044;52.386;13.278;2022-08-01T09:13:05;2.28;;;1.70;;
46322;SDS011;32044;52.386;13.278;2022-08-01T09:15:49;2.10;;;1.90;;
46322;SDS011;32044;52.386;13.278;2022-08-01T09:21:19;2.75;;;2.00;;
46322;SDS011;32044;52.386;13.278;2022-08-01T09:23:53;2.78;;;1.90;;
46322;SDS011;32044;52.386;13.278;2022-08-01T09:26:28;2.00;;;1.80;;
46322;SDS011;32044;52.386;13.278;2022-08-01T09:28:55;2.00;;;1.85;;
46322;SDS011;32044;52.386;13.278;2022-08-01T09:31:21;1.70;;;1.60;;
46322;SDS011;32044;52.386;13.278;2022-08-01T09:33:53;7.13;;;2.60;;
46322;SDS011;32044;52.386;13.278;2022-08-01T09:36:23;7.55;;;2.38;;
46322;SDS011;32044;52.386;13.278;2022-08-01T09:38:50;3.20;;;2.03;;
46322;SDS011;32044;52.386;13.278;2022-08-01T09:41:16;2.10;;;1.77;;
46322;SDS011;32044;52.386;13.278;2022-08-01T09:43:47;1.80;;;1.60;;
46322;SDS011;32044;52.386;13.278;2022-08-01T09:46:13;2.03;;;1.80;;
46322;SDS011;32044;52.386;13.278;2022-08-01T09:48:38;3.15;;;1.55;;
46322;SDS011;32044;52.386;13.278;2022-08-01T09:51:07;3.42;;;1.88;;
46322;SDS011;32044;52.386;13.278;2022-08-01T09:53:48;3.30;;;1.50;;
46322;SDS011;32044;52.386;13.278;2022-08-01T09:56:13;2.83;;;1.58;;
46322;SDS011;32044;52.386;13.278;2022-08-01T09:58:52;1.30;;;1.20;;
46322;SDS011;32044;52.386;13.278;2022-08-01T10:01:20;2.28;;;1.50;;
46322;SDS011;32044;52.386;13.278;2022-08-01T10:03:45;1.40;;;1.30;;
46322;SDS011;32044;52.386;13.278;2022-08-01T10:06:20;3.07;;;1.73;;
46322;SDS011;32044;52.386;13.278;2022-08-01T10:08:47;2.30;;;1.60;;
46322;SDS011;32044;52.386;13.278;2022-08-01T10:11:12;2.08;;;1.73;;
46322;SDS011;32044;52.386;13.278;2022-08-01T10:13:38;6.15;;;1.80;;
46322;SDS011;32044;52.386;13.278;2022-08-01T10:16:04;2.38;;;1.23;;
46322;SDS011;32044;52.386;13.278;2022-08-01T10:18:31;2.30;;;1.00;;
46322;SDS011;32044;52.386;13.278;2022-08-01T10:20:58;1.77;;;1.20;;
46322;SDS011;32044;52.386;13.278;2022-08-01T10:23:24;2.97;;;1.30;;
46322;SDS011;32044;52.386;13.278;2022-08-01T10:25:51;1.00;;;1.00;;
46322;SDS011;32044;52.386;13.278;2022-08-01T10:28:17;1.27;;;1.17;;
46322;SDS011;32044;52.386;13.278;2022-08-01T10:30:43;1.70;;;1.08;;
46322;SDS011;32044;52.386;13.278;2022-08-01T10:33:10;1.00;;;0.90;;
46322;SDS011;32044;52.386;13.278;2022-08-01T10:35:35;1.20;;;1.10;;
46322;SDS011;32044;52.386;13.278;2022-08-01T10:38:01;1.25;;;0.93;;
46322;SDS011;32044;52.386;13.278;2022-08-01T10:40:27;1.05;;;1.02;;
46322;SDS011;32044;52.386;13.278;2022-08-01T10:42:53;3.38;;;1.30;;
46322;SDS011;32044;52.386;13.278;2022-08-01T10:45:19;1.98;;;1.00;;
46322;SDS011;32044;52.386;13.278;2022-08-01T10:47:50;2.05;;;1.10;;
46322;SDS011;32044;52.386;13.278;2022-08-01T10:50:39;2.53;;;1.67;;
46322;SDS011;32044;52.386;13.278;2022-08-01T10:53:08;1.23;;;1.13;;
46322;SDS011;32044;52.386;13.278;2022-08-01T10:55:45;1.83;;;0.98;;
46322;SDS011;32044;52.386;13.278;2022-08-01T10:58:28;3.70;;;1.70;;
46322;SDS011;32044;52.386;13.278;2022-08-01T11:03:42;3.38;;;1.10;;
46322;SDS011;32044;52.386;13.278;2022-08-01T11:06:17;1.33;;;1.02;;
46322;SDS011;32044;52.386;13.278;2022-08-01T11:08:51;6.25;;;2.20;;
46322;SDS011;32044;52.386;13.278;2022-08-01T11:11:18;4.72;;;1.45;;
46322;SDS011;32044;52.386;13.278;2022-08-01T11:16:29;1.33;;;1.05;;
46322;SDS011;32044;52.386;13.278;2022-08-01T11:18:56;5.03;;;1.25;;
46322;SDS011;32044;52.386;13.278;2022-08-01T11:21:21;5.75;;;1.73;;
46322;SDS011;32044;52.386;13.278;2022-08-01T11:23:51;6.78;;;1.83;;
46322;SDS011;32044;52.386;13.278;2022-08-01T11:26:18;1.63;;;0.70;;
46322;SDS011;32044;52.386;13.278;2022-08-01T11:28:45;4.78;;;0.95;;
46322;SDS011;32044;52.386;13.278;2022-08-01T11:38:38;6.57;;;1.35;;
46322;SDS011;32044;52.386;13.278;2022-08-01T11:41:18;3.75;;;1.20;;
46322;SDS011;32044;52.386;13.278;2022-08-01T11:49:21;0.85;;;0.85;;
46322;SDS011;32044;52.386;13.278;2022-08-01T11:52:09;1.10;;;1.00;;
46322;SDS011;32044;52.386;13.278;2022-08-01T11:57:14;3.42;;;1.10;;
46322;SDS011;32044;52.386;13.278;2022-08-01T12:02:18;0.80;;;0.80;;
46322;SDS011;32044;52.386;13.278;2022-08-01T12:04:57;1.45;;;1.10;;
46322;SDS011;32044;52.386;13.278;2022-08-01T12:07:24;3.28;;;1.02;;
46322;SDS011;32044;52.386;13.278;2022-08-01T12:09:57;1.70;;;1.05;;
46322;SDS011;32044;52.386;13.278;2022-08-01T12:12:23;2.58;;;1.02;;
46322;SDS011;32044;52.386;13.278;2022-08-01T12:14:58;3.77;;;1.00;;
46322;SDS011;32044;52.386;13.278;2022-08-01T12:17:33;1.67;;;0.90;;
46322;SDS011;32044;52.386;13.278;2022-08-01T12:19:59;1.77;;;1.00;;
46322;SDS011;32044;52.386;13.278;2022-08-01T12:22:25;5.03;;;1.38;;
46322;SDS011;32044;52.386;13.278;2022-08-01T12:24:50;1.48;;;1.10;;
46322;SDS011;32044;52.386;13.278;2022-08-01T12:27:29;2.67;;;1.00;;
46322;SDS011;32044;52.386;13.278;2022-08-01T12:29:55;2.45;;;1.10;;
46322;SDS011;32044;52.386;13.278;2022-08-01T12:37:58;2.00;;;1.20;;
46322;SDS011;32044;52.386;13.278;2022-08-01T12:40:27;2.97;;;1.30;;
46322;SDS011;32044;52.386;13.278;2022-08-01T12:42:55;2.65;;;1.05;;
46322;SDS011;32044;52.386;13.278;2022-08-01T12:45:24;0.75;;;0.75;;
46322;SDS011;32044;52.386;13.278;2022-08-01T12:47:51;1.50;;;1.17;;
46322;SDS011;32044;52.386;13.278;2022-08-01T12:50:18;3.30;;;1.30;;
46322;SDS011;32044;52.386;13.278;2022-08-01T12:52:48;3.13;;;1.30;;
46322;SDS011;32044;52.386;13.278;2022-08-01T12:55:17;1.10;;;0.90;;
46322;SDS011;32044;52.386;13.278;2022-08-01T12:57:45;0.90;;;0.90;;
46322;SDS011;32044;52.386;13.278;2022-08-01T13:00:24;2.58;;;0.90;;
46322;SDS011;32044;52.386;13.278;2022-08-01T13:03:13;1.30;;;0.82;;
46322;SDS011;32044;52.386;13.278;2022-08-01T13:05:47;1.17;;;0.93;;
46322;SDS011;32044;52.386;13.278;2022-08-01T13:08:15;3.28;;;0.88;;
46322;SDS011;32044;52.386;13.278;2022-08-01T13:10:42;0.77;;;0.68;;
46322;SDS011;32044;52.386;13.278;2022-08-01T13:13:08;0.77;;;0.77;;
46322;SDS011;32044;52.386;13.278;2022-08-01T13:15:34;0.75;;;0.75;;
46322;SDS011;32044;52.386;13.278;2022-08-01T13:18:23;0.77;;;0.47;;
46322;SDS011;32044;52.386;13.278;2022-08-01T13:20:47;1.35;;;0.80;;
46322;SDS011;32044;52.386;13.278;2022-08-01T13:23:13;4.35;;;0.70;;
46322;SDS011;32044;52.386;13.278;2022-08-01T13:28:14;3.47;;;0.85;;
46322;SDS011;32044;52.386;13.278;2022-08-01T13:30:49;0.63;;;0.63;;
46322;SDS011;32044;52.386;13.278;2022-08-01T13:33:19;1.65;;;1.00;;
46322;SDS011;32044;52.386;13.278;2022-08-01T13:35:44;3.88;;;0.80;;
46322;SDS011;32044;52.386;13.278;2022-08-01T13:38:11;1.23;;;0.60;;
46322;SDS011;32044;52.386;13.278;2022-08-01T13:40:36;2.13;;;1.00;;
46322;SDS011;32044;52.386;13.278;2022-08-01T13:43:02;5.80;;;1.20;;
46322;SDS011;32044;52.386;13.278;2022-08-01T13:45:27;1.05;;;0.55;;
46322;SDS011;32044;52.386;13.278;2022-08-01T13:47:52;1.48;;;0.60;;
46322;SDS011;32044;52.386;13.278;2022-08-01T13:50:18;0.65;;;0.47;;
46322;SDS011;32044;52.386;13.278;2022-08-01T13:52:43;1.92;;;0.70;;
46322;SDS011;32044;52.386;13.278;2022-08-01T13:55:08;0.93;;;0.80;;
46322;SDS011;32044;52.386;13.278;2022-08-01T13:57:34;0.45;;;0.45;;
46322;SDS011;32044;52.386;13.278;2022-08-01T13:59:59;2.47;;;0.60;;
46322;SDS011;32044;52.386;13.278;2022-08-01T14:02:25;0.52;;;0.35;;
46322;SDS011;32044;52.386;13.278;2022-08-01T14:04:51;0.90;;;0.40;;
46322;SDS011;32044;52.386;13.278;2022-08-01T14:07:17;4.05;;;0.70;;
46322;SDS011;32044;52.386;13.278;2022-08-01T14:09:42;0.67;;;0.50;;
46322;SDS011;32044;52.386;13.278;2022-08-01T14:12:07;1.40;;;0.80;;
46322;SDS011;32044;52.386;13.278;2022-08-01T14:14:33;0.55;;;0.40;;
46322;SDS011;32044;52.386;13.278;2022-08-01T14:16:58;1.02;;;0.80;;
46322;SDS011;32044;52.386;13.278;2022-08-01T14:19:23;0.43;;;0.43;;
46322;SDS011;32044;52.386;13.278;2022-08-01T14:21:49;1.40;;;0.67;;
46322;SDS011;32044;52.386;13.278;2022-08-01T14:24:17;1.08;;;0.60;;
46322;SDS011;32044;52.386;13.278;2022-08-01T14:26:42;0.50;;;0.40;;
46322;SDS011;32044;52.386;13.278;2022-08-01T14:29:07;2.23;;;0.83;;
46322;SDS011;32044;52.386;13.278;2022-08-01T14:31:33;1.50;;;0.80;;
46322;SDS011;32044;52.386;13.278;2022-08-01T14:33:58;0.38;;;0.38;;
46322;SDS011;32044;52.386;13.278;2022-08-01T14:36:23;1.07;;;0.60;;
46322;SDS011;32044;52.386;13.278;2022-08-01T14:38:48;0.77;;;0.53;;
46322;SDS011;32044;52.386;13.278;2022-08-01T14:41:14;2.53;;;0.50;;
46322;SDS011;32044;52.386;13.278;2022-08-01T14:43:39;0.55;;;0.52;;
46322;SDS011;32044;52.386;13.278;2022-08-01T14:46:05;2.03;;;0.50;;
46322;SDS011;32044;52.386;13.278;2022-08-01T14:48:30;0.70;;;0.50;;
46322;SDS011;32044;52.386;13.278;2022-08-01T14:50:56;0.40;;;0.40;;
46322;SDS011;32044;52.386;13.278;2022-08-01T14:53:22;1.55;;;0.47;;
46322;SDS011;32044;52.386;13.278;2022-08-01T14:55:47;2.43;;;0.40;;
46322;SDS011;32044;52.386;13.278;2022-08-01T14:58:13;0.40;;;0.40;;
46322;SDS011;32044;52.386;13.278;2022-08-01T15:00:38;0.43;;;0.43;;
46322;SDS011;32044;52.386;13.278;2022-08-01T15:03:03;0.65;;;0.40;;
46322;SDS011;32044;52.386;13.278;2022-08-01T15:05:28;1.40;;;0.50;;
46322;SDS011;32044;52.386;13.278;2022-08-01T15:07:55;1.38;;;0.63;;
46322;SDS011;32044;52.386;13.278;2022-08-01T15:10:20;2.08;;;0.60;;
46322;SDS011;32044;52.386;13.278;2022-08-01T15:12:46;1.85;;;0.70;;
46322;SDS011;32044;52.386;13.278;2022-08-01T15:15:11;0.50;;;0.50;;
46322;SDS011;32044;52.386;13.278;2022-08-01T15:17:37;0.50;;;0.50;;